createdAt,value
2023-05-10T00:02:24.468Z,21.02
2023-05-10T00:04:53.334Z,21.58
2023-05-10T00:07:21.182Z,20.08
2023-05-10T00:09:49.073Z,21.10
2023-05-10T00:12:16.925Z,21.88
2023-05-10T00:14:44.873Z,21.20
2023-05-10T00:17:14.126Z,22.10
2023-05-10T00:19:42.016Z,21.83
2023-05-10T00:22:09.876Z,21.33
2023-05-10T00:24:37.751Z,21.58
2023-05-10T00:27:06.033Z,21.27
2023-05-10T00:29:34.723Z,22.40
2023-05-10T00:32:02.768Z,21.77
2023-05-10T00:34:32.071Z,20.65
2023-05-10T00:36:59.929Z,21.50
2023-05-10T00:39:29.600Z,22.08
2023-05-10T00:41:57.480Z,22.00
2023-05-10T00:44:25.434Z,21.85
2023-05-10T00:46:53.408Z,22.02
2023-05-10T00:49:22.620Z,22.60
2023-05-10T00:51:52.503Z,22.95
2023-05-10T00:54:20.484Z,22.52
2023-05-10T00:56:50.197Z,21.38
2023-05-10T00:59:18.744Z,22.75
2023-05-10T01:01:46.759Z,22.98
2023-05-10T01:04:15.628Z,23.05
2023-05-10T01:06:43.808Z,21.80
2023-05-10T01:09:13.584Z,22.80
2023-05-10T01:11:42.350Z,22.27
2023-05-10T01:14:10.584Z,22.23
2023-05-10T01:16:40.814Z,22.92
2023-05-10T01:19:14.602Z,23.00
2023-05-10T01:21:50.479Z,22.80
2023-05-10T01:24:47.633Z,23.40
2023-05-10T01:27:27.318Z,22.05
2023-05-10T01:30:17.030Z,23.70
2023-05-10T01:32:53.205Z,24.30
2023-05-10T01:35:26.909Z,27.30
2023-05-10T01:38:01.679Z,28.90
2023-05-10T01:40:37.557Z,27.63
2023-05-10T01:43:10.369Z,29.57
2023-05-10T01:45:44.475Z,27.52
2023-05-10T01:48:16.083Z,27.45
2023-05-10T01:50:47.367Z,28.48
2023-05-10T01:53:19.350Z,26.90
2023-05-10T01:55:50.675Z,28.35
2023-05-10T01:58:23.056Z,29.00
2023-05-10T02:00:52.939Z,28.95
2023-05-10T02:03:25.827Z,30.73
2023-05-10T02:05:55.500Z,30.33
2023-05-10T02:08:24.525Z,31.02
2023-05-10T02:10:57.620Z,30.67
2023-05-10T02:13:26.615Z,32.55
2023-05-10T02:15:56.659Z,33.85
2023-05-10T02:18:27.724Z,33.38
2023-05-10T02:20:57.482Z,35.45
2023-05-10T02:23:27.216Z,34.28
2023-05-10T02:25:56.843Z,32.50
2023-05-10T02:28:26.791Z,34.95
2023-05-10T02:30:56.158Z,33.63
2023-05-10T02:33:26.148Z,33.97
2023-05-10T02:35:54.852Z,33.22
2023-05-10T02:38:25.754Z,34.30
2023-05-10T02:40:54.676Z,34.58
2023-05-10T02:43:26.827Z,33.45
2023-05-10T02:45:55.001Z,33.45
2023-05-10T02:48:23.342Z,32.95
2023-05-10T02:50:55.754Z,33.15
2023-05-10T02:53:31.852Z,32.80
2023-05-10T02:56:06.160Z,31.20
2023-05-10T02:58:35.057Z,31.05
2023-05-10T03:01:03.831Z,33.10
2023-05-10T03:03:32.277Z,31.13
2023-05-10T03:06:02.178Z,31.48
2023-05-10T03:08:31.469Z,31.80
2023-05-10T03:11:19.340Z,31.48
2023-05-10T03:13:56.190Z,31.88
2023-05-10T03:16:29.543Z,32.30
2023-05-10T03:19:03.953Z,29.90
2023-05-10T03:21:34.065Z,31.35
2023-05-10T03:24:09.007Z,31.50
2023-05-10T03:26:38.268Z,32.20
2023-05-10T03:29:07.320Z,31.65
2023-05-10T03:31:35.517Z,32.15
2023-05-10T03:34:03.793Z,33.10
2023-05-10T03:36:33.362Z,32.27
2023-05-10T03:39:01.434Z,30.60
2023-05-10T03:41:29.543Z,30.65
2023-05-10T03:43:57.958Z,32.08
2023-05-10T03:46:25.947Z,31.40
2023-05-10T03:48:53.978Z,32.35
2023-05-10T03:51:23.254Z,33.25
2023-05-10T03:53:52.627Z,34.13
2023-05-10T03:56:21.737Z,33.17
2023-05-10T03:58:49.842Z,34.08
2023-05-10T04:01:17.733Z,34.28
2023-05-10T04:03:46.034Z,35.50
2023-05-10T04:06:14.228Z,34.25
2023-05-10T04:08:42.426Z,35.97
2023-05-10T04:11:13.748Z,37.97
2023-05-10T04:13:42.139Z,36.65
2023-05-10T04:16:10.492Z,38.03
2023-05-10T04:18:38.772Z,38.30
2023-05-10T04:21:07.233Z,38.47
2023-05-10T04:23:35.321Z,38.70
2023-05-10T04:26:03.878Z,39.97
2023-05-10T04:28:34.011Z,37.90
2023-05-10T04:31:05.688Z,39.28
2023-05-10T04:33:34.335Z,38.63
2023-05-10T04:36:03.173Z,38.38
2023-05-10T04:38:31.711Z,40.05
2023-05-10T04:41:07.307Z,40.30
2023-05-10T04:43:37.380Z,38.13
2023-05-10T04:46:06.747Z,37.22
2023-05-10T04:48:34.888Z,37.75
2023-05-10T04:51:04.930Z,38.35
2023-05-10T04:53:33.381Z,32.53
2023-05-10T04:56:01.561Z,33.53
2023-05-10T04:58:29.466Z,32.90
2023-05-10T05:00:58.760Z,34.25
2023-05-10T05:03:26.797Z,32.42
2023-05-10T05:05:54.755Z,33.03
2023-05-10T05:08:22.675Z,33.30
2023-05-10T05:10:51.627Z,31.40
2023-05-10T05:13:19.682Z,32.03
2023-05-10T05:15:48.096Z,30.20
2023-05-10T05:18:17.404Z,32.00
2023-05-10T05:20:45.444Z,30.20
2023-05-10T05:23:13.363Z,29.90
2023-05-10T05:25:41.259Z,29.80
2023-05-10T05:28:09.240Z,28.90
2023-05-10T05:30:37.189Z,29.60
2023-05-10T05:33:05.229Z,26.90
2023-05-10T05:35:35.147Z,28.10
2023-05-10T05:38:03.066Z,26.25
2023-05-10T05:40:30.941Z,26.08
2023-05-10T05:42:58.846Z,23.42
2023-05-10T05:45:26.764Z,24.92
2023-05-10T05:47:54.677Z,23.05
2023-05-10T05:50:22.636Z,22.07
2023-05-10T05:52:52.087Z,22.30
2023-05-10T05:55:20.206Z,20.40
2023-05-10T05:57:48.029Z,19.60
2023-05-10T06:00:17.147Z,19.05
2023-05-10T06:02:45.460Z,19.60
2023-05-10T06:05:15.217Z,17.73
2023-05-10T06:07:43.838Z,18.40
2023-05-10T06:10:13.273Z,16.97
2023-05-10T06:12:41.473Z,17.85
2023-05-10T06:15:11.263Z,16.75
2023-05-10T06:17:39.812Z,17.40
2023-05-10T06:20:09.154Z,17.40
2023-05-10T06:22:37.053Z,16.58
2023-05-10T06:25:05.167Z,16.15
2023-05-10T06:27:34.387Z,15.98
2023-05-10T06:30:12.389Z,16.33
2023-05-10T06:32:41.203Z,15.57
2023-05-10T06:35:10.253Z,13.53
2023-05-10T06:37:38.161Z,14.07
2023-05-10T06:40:07.409Z,14.65
2023-05-10T06:42:36.724Z,13.88
2023-05-10T06:45:05.008Z,14.77
2023-05-10T06:47:33.021Z,14.10
2023-05-10T06:50:01.122Z,12.90
2023-05-10T06:52:29.400Z,13.18
2023-05-10T06:54:57.316Z,13.10
2023-05-10T06:59:59.678Z,11.05
2023-05-10T07:02:27.764Z,11.00
2023-05-10T07:04:55.836Z,10.20
2023-05-10T07:07:23.794Z,10.98
2023-05-10T07:09:52.347Z,10.30
2023-05-10T07:12:20.383Z,10.27
2023-05-10T07:14:48.276Z,9.05
2023-05-10T07:17:17.560Z,9.13
2023-05-10T07:19:45.427Z,8.98
2023-05-10T07:22:13.437Z,8.13
2023-05-10T07:24:41.480Z,7.90
2023-05-10T07:27:09.920Z,8.20
2023-05-10T07:29:38.400Z,7.60
2023-05-10T07:32:06.930Z,7.60
2023-05-10T07:34:36.338Z,7.50
2023-05-10T07:37:04.406Z,6.45
2023-05-10T07:39:32.329Z,6.95
2023-05-10T07:42:00.255Z,7.45
2023-05-10T07:44:28.135Z,7.05
2023-05-10T07:46:56.586Z,7.03
2023-05-10T07:49:25.657Z,7.15
2023-05-10T07:51:55.004Z,7.63
2023-05-10T07:54:22.934Z,7.23
2023-05-10T07:56:50.896Z,6.60
2023-05-10T07:59:19.753Z,7.15
2023-05-10T08:01:47.642Z,7.40
2023-05-10T08:04:15.661Z,6.90
2023-05-10T08:06:43.698Z,7.00
2023-05-10T08:09:12.995Z,7.22
2023-05-10T08:11:41.050Z,6.28
2023-05-10T08:14:08.966Z,5.80
2023-05-10T08:16:36.900Z,5.70
2023-05-10T08:19:05.550Z,6.20
2023-05-10T08:21:33.637Z,6.50
2023-05-10T08:24:01.501Z,5.50
2023-05-10T08:26:30.726Z,5.95
2023-05-10T08:28:58.615Z,5.97
2023-05-10T08:31:26.584Z,5.80
2023-05-10T08:33:54.573Z,5.88
2023-05-10T08:36:25.133Z,5.47
2023-05-10T08:38:53.732Z,5.50
2023-05-10T08:41:23.021Z,6.20
2023-05-10T08:43:52.582Z,5.50
2023-05-10T08:46:22.986Z,5.63
2023-05-10T08:48:53.323Z,5.55
2023-05-10T08:51:24.722Z,5.65
2023-05-10T08:53:52.629Z,6.25
2023-05-10T08:56:21.362Z,6.20
2023-05-10T08:58:49.919Z,5.53
2023-05-10T09:01:20.189Z,5.50
2023-05-10T09:03:49.244Z,5.40
2023-05-10T09:06:17.611Z,6.03
2023-05-10T09:08:46.748Z,6.10
2023-05-10T09:11:15.378Z,6.25
2023-05-10T09:13:44.846Z,6.00
2023-05-10T09:16:21.084Z,5.63
2023-05-10T09:18:51.649Z,5.63
2023-05-10T09:21:21.191Z,5.80
2023-05-10T09:23:51.061Z,5.40
2023-05-10T09:26:19.258Z,6.03
2023-05-10T09:28:54.361Z,6.40
2023-05-10T09:31:22.385Z,6.30
2023-05-10T09:33:52.756Z,5.97
2023-05-10T09:36:20.717Z,6.95
2023-05-10T09:38:49.996Z,5.40
2023-05-10T09:41:19.474Z,6.10
2023-05-10T09:43:47.545Z,5.78
2023-05-10T09:46:15.550Z,5.80
2023-05-10T09:48:45.762Z,6.20
2023-05-10T09:51:21.224Z,5.30
2023-05-10T09:53:51.469Z,5.13
2023-05-10T09:56:37.202Z,5.30
2023-05-10T09:59:05.594Z,5.25
2023-05-10T10:01:33.501Z,5.43
2023-05-10T10:04:04.660Z,5.30
2023-05-10T10:06:37.689Z,4.80
2023-05-10T10:09:06.629Z,5.70
2023-05-10T10:11:36.080Z,5.50
2023-05-10T10:14:04.346Z,4.35
2023-05-10T10:16:32.697Z,5.07
2023-05-10T10:19:01.044Z,5.40
2023-05-10T10:21:29.362Z,4.88
2023-05-10T10:23:58.625Z,5.40
2023-05-10T10:26:27.014Z,5.05
2023-05-10T10:29:19.840Z,5.40
2023-05-10T10:31:51.663Z,4.90
2023-05-10T10:34:27.730Z,5.15
2023-05-10T10:36:57.238Z,4.43
2023-05-10T10:39:27.149Z,4.40
2023-05-10T10:41:56.269Z,4.63
2023-05-10T10:44:28.847Z,5.30
2023-05-10T10:47:06.488Z,5.05
2023-05-10T10:49:35.074Z,4.57
2023-05-10T10:52:29.036Z,4.00
2023-05-10T10:55:04.034Z,3.67
2023-05-10T10:57:35.399Z,3.75
2023-05-10T11:00:27.405Z,5.03
2023-05-10T11:02:57.778Z,5.00
2023-05-10T11:05:47.196Z,5.70
2023-05-10T11:08:20.706Z,5.77
2023-05-10T11:10:55.442Z,6.03
2023-05-10T11:13:31.175Z,6.45
2023-05-10T11:16:00.000Z,6.60
2023-05-10T11:18:29.484Z,6.90
2023-05-10T11:21:00.588Z,6.60
2023-05-10T11:23:32.635Z,7.45
2023-05-10T11:26:02.661Z,7.05
2023-05-10T11:28:30.564Z,7.68
2023-05-10T11:30:59.028Z,7.53
2023-05-10T11:33:26.940Z,8.13
2023-05-10T11:35:54.910Z,9.15
2023-05-10T11:38:22.961Z,8.10
2023-05-10T11:40:54.964Z,8.67
2023-05-10T11:43:29.086Z,8.70
2023-05-10T11:45:57.177Z,8.40
2023-05-10T11:48:25.125Z,9.82
2023-05-10T11:50:53.733Z,9.75
2023-05-10T11:53:23.752Z,9.10
2023-05-10T11:55:52.677Z,10.43
2023-05-10T11:58:22.311Z,8.90
2023-05-10T12:00:52.104Z,9.82
2023-05-10T12:03:20.287Z,9.63
2023-05-10T12:05:48.352Z,10.35
2023-05-10T12:08:17.396Z,9.37
2023-05-10T12:10:45.280Z,9.80
2023-05-10T12:13:15.108Z,10.43
2023-05-10T12:15:44.085Z,9.40
2023-05-10T12:18:13.900Z,9.53
2023-05-10T12:20:43.558Z,9.30
2023-05-10T12:23:12.061Z,9.40
2023-05-10T12:25:40.706Z,9.45
2023-05-10T12:28:10.622Z,9.45
2023-05-10T12:30:39.204Z,8.98
2023-05-10T12:33:11.109Z,9.40
2023-05-10T12:35:51.553Z,8.60
2023-05-10T12:38:27.660Z,8.53
2023-05-10T12:40:55.980Z,8.45
2023-05-10T12:43:24.479Z,8.80
2023-05-10T12:45:52.489Z,9.75
2023-05-10T12:48:20.781Z,8.87
2023-05-10T12:50:50.504Z,9.07
2023-05-10T12:53:18.742Z,8.85
2023-05-10T12:55:46.835Z,8.35
2023-05-10T12:58:31.327Z,7.80
2023-05-10T13:01:02.810Z,7.57
2023-05-10T13:03:30.728Z,7.50
2023-05-10T13:05:59.993Z,7.72
2023-05-10T13:08:27.900Z,7.40
2023-05-10T13:10:55.794Z,7.90
2023-05-10T13:13:23.660Z,7.97
2023-05-10T13:15:51.511Z,7.50
2023-05-10T13:18:19.489Z,7.50
2023-05-10T13:20:47.424Z,7.70
2023-05-10T13:23:16.719Z,7.30
2023-05-10T13:25:44.565Z,8.20
2023-05-10T13:28:12.433Z,7.18
2023-05-10T13:30:40.266Z,7.30
2023-05-10T13:33:08.163Z,7.40
2023-05-10T13:35:36.070Z,8.43
2023-05-10T13:38:04.072Z,7.90
2023-05-10T13:40:33.338Z,8.20
2023-05-10T13:43:01.286Z,8.25
2023-05-10T13:45:29.157Z,8.00
2023-05-10T13:47:57.013Z,8.18
2023-05-10T13:50:24.943Z,8.50
2023-05-10T13:52:52.823Z,7.60
2023-05-10T13:55:20.833Z,7.30
2023-05-10T13:57:50.076Z,7.57
2023-05-10T14:00:18.551Z,6.82
2023-05-10T14:02:46.484Z,7.10
2023-05-10T14:05:14.472Z,6.78
2023-05-10T14:07:42.348Z,6.53
2023-05-10T14:10:10.843Z,6.32
2023-05-10T14:12:38.771Z,6.20
2023-05-10T14:15:11.365Z,6.10
2023-05-10T14:17:39.394Z,5.47
2023-05-10T14:20:12.862Z,5.20
2023-05-10T14:22:41.212Z,5.03
2023-05-10T14:25:09.836Z,5.80
2023-05-10T14:27:37.773Z,5.07
2023-05-10T14:30:06.610Z,5.50
2023-05-10T14:32:37.509Z,5.07
2023-05-10T14:35:06.950Z,5.32
2023-05-10T14:37:35.041Z,4.85
2023-05-10T14:40:03.508Z,5.07
2023-05-10T14:42:32.209Z,4.93
2023-05-10T14:45:00.034Z,5.40
2023-05-10T14:47:28.163Z,5.05
2023-05-10T14:49:57.354Z,5.22
2023-05-10T14:52:25.444Z,5.10
2023-05-10T14:54:53.584Z,4.93
2023-05-10T14:57:21.479Z,4.60
2023-05-10T14:59:49.481Z,4.95
2023-05-10T15:02:17.924Z,4.50
2023-05-10T15:04:46.524Z,4.85
2023-05-10T15:07:17.297Z,4.10
2023-05-10T15:09:45.491Z,4.50
2023-05-10T15:12:13.420Z,4.82
2023-05-10T15:14:41.347Z,4.28
2023-05-10T15:17:09.471Z,4.20
2023-05-10T15:19:38.036Z,3.95
2023-05-10T15:22:06.983Z,3.45
2023-05-10T15:24:36.365Z,4.30
2023-05-10T15:27:04.321Z,4.28
2023-05-10T15:29:32.516Z,4.20
2023-05-10T15:32:00.348Z,4.80
2023-05-10T15:34:29.649Z,4.35
2023-05-10T15:36:57.990Z,4.80
2023-05-10T15:39:25.891Z,5.15
2023-05-10T15:41:55.126Z,4.95
2023-05-10T15:44:23.156Z,4.80
2023-05-10T15:46:51.577Z,4.95
2023-05-10T15:49:19.608Z,5.05
2023-05-10T15:51:47.599Z,5.18
2023-05-10T15:54:15.626Z,5.68
2023-05-10T15:56:43.518Z,6.20
2023-05-10T15:59:13.100Z,6.00
2023-05-10T16:01:41.217Z,5.47
2023-05-10T16:04:09.390Z,5.65
2023-05-10T16:06:38.444Z,5.00
2023-05-10T16:09:06.498Z,6.30
2023-05-10T16:11:34.689Z,5.70
2023-05-10T16:14:02.586Z,5.70
2023-05-10T16:16:32.244Z,6.60
2023-05-10T16:19:01.388Z,6.70
2023-05-10T16:21:31.643Z,7.00
2023-05-10T16:23:59.636Z,6.23
2023-05-10T16:26:27.524Z,6.60
2023-05-10T16:28:56.019Z,6.50
2023-05-10T16:31:23.912Z,7.28
2023-05-10T16:33:53.174Z,7.70
2023-05-10T16:36:21.102Z,7.47
2023-05-10T16:38:49.106Z,8.10
2023-05-10T16:41:16.939Z,7.32
2023-05-10T16:43:46.739Z,7.82
2023-05-10T16:46:14.777Z,8.45
2023-05-10T16:48:42.649Z,9.05
2023-05-10T16:51:12.434Z,9.40
2023-05-10T16:53:40.623Z,10.30
2023-05-10T16:56:08.725Z,10.65
2023-05-10T16:58:36.590Z,10.90
2023-05-10T17:01:05.166Z,10.77
2023-05-10T17:03:33.440Z,10.67
2023-05-10T17:06:01.404Z,10.98
2023-05-10T17:08:30.694Z,10.00
2023-05-10T17:11:02.330Z,11.27
2023-05-10T17:13:30.394Z,10.95
2023-05-10T17:15:58.500Z,10.70
2023-05-10T17:18:26.792Z,11.43
2023-05-10T17:20:54.879Z,11.60
2023-05-10T17:23:22.802Z,11.57
2023-05-10T17:25:52.122Z,11.90
2023-05-10T17:28:20.093Z,11.10
2023-05-10T17:30:48.333Z,11.32
2023-05-10T17:33:16.200Z,11.07
2023-05-10T17:35:46.547Z,11.60
2023-05-10T17:38:14.339Z,10.95
2023-05-10T17:40:42.525Z,10.50
2023-05-10T17:43:11.699Z,10.60
2023-05-10T17:45:39.583Z,11.48
2023-05-10T17:48:07.768Z,11.65
2023-05-10T17:50:35.688Z,12.00
2023-05-10T17:53:03.950Z,10.90
2023-05-10T17:55:33.397Z,11.73
2023-05-10T17:58:01.679Z,11.02
2023-05-10T18:00:30.900Z,11.88
2023-05-10T18:02:58.864Z,10.63
2023-05-10T18:05:26.986Z,11.38
2023-05-10T18:07:54.930Z,11.90
2023-05-10T18:10:23.222Z,12.50
2023-05-10T18:12:52.607Z,11.15
2023-05-10T18:15:20.576Z,11.82
2023-05-10T18:17:50.697Z,11.45
2023-05-10T18:20:18.585Z,11.02
2023-05-10T18:22:46.493Z,10.87
2023-05-10T18:25:14.648Z,10.32
2023-05-10T18:27:42.775Z,11.85
2023-05-10T18:30:22.525Z,10.25
2023-05-10T18:32:51.804Z,10.80
2023-05-10T18:35:20.022Z,11.30
2023-05-10T18:37:48.678Z,11.65
2023-05-10T18:40:18.032Z,11.30
2023-05-10T18:42:52.186Z,10.77
2023-05-10T18:45:20.293Z,11.10
2023-05-10T18:47:48.374Z,11.50
2023-05-10T18:50:20.918Z,10.77
2023-05-10T18:52:48.873Z,10.80
2023-05-10T18:55:16.851Z,11.00
2023-05-10T18:57:46.088Z,10.95
2023-05-10T19:00:14.727Z,12.52
2023-05-10T19:02:42.940Z,12.90
2023-05-10T19:05:11.430Z,12.07
2023-05-10T19:07:43.422Z,12.70
2023-05-10T19:10:12.688Z,12.75
2023-05-10T19:12:42.206Z,12.10
2023-05-10T19:15:11.709Z,13.32
2023-05-10T19:17:41.747Z,13.18
2023-05-10T19:20:10.610Z,14.15
2023-05-10T19:25:13.006Z,13.60
2023-05-10T19:27:40.940Z,12.82
2023-05-10T19:30:09.846Z,13.43
2023-05-10T19:32:37.858Z,12.90
2023-05-10T19:35:06.539Z,13.07
2023-05-10T19:37:34.435Z,11.95
2023-05-10T19:40:04.753Z,12.65
2023-05-10T19:42:32.636Z,12.35
2023-05-10T19:45:00.838Z,12.70
2023-05-10T19:47:28.819Z,12.63
2023-05-10T19:49:56.749Z,11.77
2023-05-10T19:52:24.705Z,12.63
2023-05-10T19:54:52.559Z,12.75
2023-05-10T19:57:21.821Z,12.40
2023-05-10T19:59:49.710Z,12.20
2023-05-10T20:02:17.676Z,11.85
2023-05-10T20:04:45.579Z,12.20
2023-05-10T20:07:13.441Z,11.20
2023-05-10T20:09:43.284Z,11.70
2023-05-10T20:12:11.397Z,10.68
2023-05-10T20:14:40.788Z,11.02
2023-05-10T20:17:08.674Z,10.77
2023-05-10T20:19:36.775Z,11.65
2023-05-10T20:22:05.333Z,11.80
2023-05-10T20:24:33.323Z,10.98
2023-05-10T20:27:02.423Z,10.80
2023-05-10T20:29:30.720Z,11.40
2023-05-10T20:32:00.095Z,11.68
2023-05-10T20:34:28.054Z,11.18
2023-05-10T20:36:55.899Z,12.35
2023-05-10T20:39:23.808Z,12.43
2023-05-10T20:41:52.392Z,11.13
2023-05-10T20:44:22.783Z,11.43
2023-05-10T20:46:50.873Z,12.35
2023-05-10T20:49:20.445Z,11.73
2023-05-10T20:51:48.409Z,12.15
2023-05-10T20:54:16.434Z,11.23
2023-05-10T20:56:44.391Z,11.43
2023-05-10T20:59:12.360Z,12.20
2023-05-10T21:01:40.364Z,12.23
2023-05-10T21:04:08.367Z,11.98
2023-05-10T21:06:37.730Z,13.13
2023-05-10T21:09:05.759Z,12.73
2023-05-10T21:11:36.241Z,12.50
2023-05-10T21:14:04.175Z,12.90
2023-05-10T21:16:32.631Z,12.07
2023-05-10T21:19:00.551Z,12.07
2023-05-10T21:21:28.624Z,11.40
2023-05-10T21:23:57.798Z,11.80
2023-05-10T21:26:25.732Z,12.50
2023-05-10T21:28:53.653Z,13.10
2023-05-10T21:31:21.693Z,12.48
2023-05-10T21:33:49.579Z,12.80
2023-05-10T21:36:17.505Z,13.15
2023-05-10T21:38:45.473Z,13.07
2023-05-10T21:41:14.767Z,13.25
2023-05-10T21:43:42.667Z,12.20
2023-05-10T21:46:10.736Z,13.18
2023-05-10T21:48:38.713Z,12.35
2023-05-10T21:51:06.671Z,11.82
2023-05-10T21:53:37.188Z,13.00
2023-05-10T21:56:05.195Z,12.73
2023-05-10T21:58:34.380Z,13.05
2023-05-10T22:01:02.549Z,12.45
2023-05-10T22:03:30.547Z,11.97
2023-05-10T22:05:58.591Z,13.23
2023-05-10T22:08:26.646Z,13.18
2023-05-10T22:10:54.543Z,12.77
2023-05-10T22:13:22.460Z,12.75
2023-05-10T22:15:51.715Z,13.63
2023-05-10T22:18:19.619Z,13.50
2023-05-10T22:20:47.990Z,14.35
2023-05-10T22:23:16.013Z,12.90
2023-05-10T22:25:43.942Z,12.43
2023-05-10T22:28:12.016Z,12.85
2023-05-10T22:30:40.051Z,12.30
2023-05-10T22:33:09.360Z,13.50
2023-05-10T22:35:37.283Z,14.15
2023-05-10T22:38:05.198Z,12.77
2023-05-10T22:40:33.072Z,13.75
2023-05-10T22:43:01.029Z,12.80
2023-05-10T22:45:29.028Z,12.73
2023-05-10T22:47:56.965Z,12.50
2023-05-10T22:50:26.234Z,12.18
2023-05-10T22:52:54.176Z,11.70
2023-05-10T22:55:22.052Z,12.07
2023-05-10T22:57:50.021Z,12.90
2023-05-10T23:00:18.587Z,11.50
2023-05-10T23:02:46.722Z,11.50
2023-05-10T23:05:14.659Z,11.82
2023-05-10T23:07:43.883Z,12.35
2023-05-10T23:10:12.281Z,11.50
2023-05-10T23:12:40.471Z,10.82
2023-05-10T23:15:09.487Z,11.20
2023-05-10T23:17:37.415Z,10.95
2023-05-10T23:20:05.847Z,10.60
2023-05-10T23:22:33.703Z,10.65
2023-05-10T23:25:03.061Z,11.10
2023-05-10T23:27:31.226Z,10.90
2023-05-10T23:29:59.154Z,10.88
2023-05-10T23:32:27.082Z,10.65
2023-05-10T23:34:55.016Z,10.90
2023-05-10T23:37:22.917Z,11.07
2023-05-10T23:39:50.935Z,10.15
2023-05-10T23:42:20.251Z,10.20
2023-05-10T23:44:48.134Z,11.48
2023-05-10T23:47:16.014Z,10.15
2023-05-10T23:49:43.899Z,10.80
2023-05-10T23:52:11.742Z,11.18
2023-05-10T23:54:39.598Z,10.73
2023-05-10T23:57:07.511Z,10.38
2023-05-10T23:59:36.710Z,11.05
